sensor_id;sensor_type;location;lat;lon;timestamp;pressure;altitude;pressure_sealevel;temperature;humidity
40285;BME280;25997;50.214;19.354;2022-07-23T00:00:20;97859.72;;;22.73;43.27
40285;BME280;25997;50.214;19.354;2022-07-23T00:03:23;97865.16;;;22.70;43.41
40285;BME280;25997;50.214;19.354;2022-07-23T00:06:25;97868.06;;;22.61;43.41
40285;BME280;25997;50.214;19.354;2022-07-23T00:09:28;97874.56;;;22.50;44.19
40285;BME280;25997;50.214;19.354;2022-07-23T00:12:32;97876.66;;;22.37;43.94
40285;BME280;25997;50.214;19.354;2022-07-23T00:15:37;97876.97;;;22.24;44.20
40285;BME280;25997;50.214;19.354;2022-07-23T00:18:40;97881.75;;;22.11;44.23
40285;BME280;25997;50.214;19.354;2022-07-23T00:21:42;97886.94;;;22.17;44.26
40285;BME280;25997;50.214;19.354;2022-07-23T00:24:45;97879.50;;;22.30;43.59
40285;BME280;25997;50.214;19.354;2022-07-23T00:27:48;97880.19;;;22.39;43.88
40285;BME280;25997;50.214;19.354;2022-07-23T00:30:52;97879.34;;;22.36;43.52
40285;BME280;25997;50.214;19.354;2022-07-23T00:33:55;97881.91;;;22.40;43.22
40285;BME280;25997;50.214;19.354;2022-07-23T00:36:58;97875.28;;;22.56;42.93
40285;BME280;25997;50.214;19.354;2022-07-23T00:40:01;97874.44;;;22.54;43.70
40285;BME280;25997;50.214;19.354;2022-07-23T00:43:04;97883.91;;;22.32;43.63
40285;BME280;25997;50.214;19.354;2022-07-23T00:46:08;97866.66;;;22.07;44.35
40285;BME280;25997;50.214;19.354;2022-07-23T00:49:10;97870.25;;;22.06;44.48
40285;BME280;25997;50.214;19.354;2022-07-23T00:52:13;97875.75;;;22.00;44.19
40285;BME280;25997;50.214;19.354;2022-07-23T00:55:16;97875.09;;;21.87;44.95
40285;BME280;25997;50.214;19.354;2022-07-23T00:58:19;97881.56;;;21.76;45.08
40285;BME280;25997;50.214;19.354;2022-07-23T01:01:24;97882.69;;;21.66;45.23
40285;BME280;25997;50.214;19.354;2022-07-23T01:04:26;97877.53;;;21.57;45.50
40285;BME280;25997;50.214;19.354;2022-07-23T01:07:29;97876.72;;;21.52;45.54
40285;BME280;25997;50.214;19.354;2022-07-23T01:10:32;97872.31;;;21.49;45.51
40285;BME280;25997;50.214;19.354;2022-07-23T01:13:34;97869.97;;;21.34;45.80
40285;BME280;25997;50.214;19.354;2022-07-23T01:16:39;97868.16;;;21.36;46.54
40285;BME280;25997;50.214;19.354;2022-07-23T01:19:41;97873.97;;;21.58;46.62
40285;BME280;25997;50.214;19.354;2022-07-23T01:22:45;97876.97;;;21.84;46.51
40285;BME280;25997;50.214;19.354;2022-07-23T01:25:49;97875.94;;;21.89;46.34
40285;BME280;25997;50.214;19.354;2022-07-23T01:28:54;97874.19;;;21.87;46.25
40285;BME280;25997;50.214;19.354;2022-07-23T01:31:57;97871.84;;;21.72;46.05
40285;BME280;25997;50.214;19.354;2022-07-23T01:35:00;97873.97;;;21.56;46.44
40285;BME280;25997;50.214;19.354;2022-07-23T01:38:04;97864.47;;;21.41;46.54
40285;BME280;25997;50.214;19.354;2022-07-23T01:41:06;97874.47;;;21.29;46.56
40285;BME280;25997;50.214;19.354;2022-07-23T01:44:09;97862.53;;;21.04;46.68
40285;BME280;25997;50.214;19.354;2022-07-23T01:47:14;97859.31;;;20.84;46.92
40285;BME280;25997;50.214;19.354;2022-07-23T01:50:17;97866.72;;;20.66;47.32
40285;BME280;25997;50.214;19.354;2022-07-23T01:53:37;97867.81;;;20.53;47.63
40285;BME280;25997;50.214;19.354;2022-07-23T01:56:39;97862.66;;;20.43;47.85
40285;BME280;25997;50.214;19.354;2022-07-23T01:59:42;97868.06;;;20.38;48.20
40285;BME280;25997;50.214;19.354;2022-07-23T02:02:45;97876.16;;;20.32;48.24
40285;BME280;25997;50.214;19.354;2022-07-23T02:05:48;97877.97;;;20.30;48.30
40285;BME280;25997;50.214;19.354;2022-07-23T02:08:52;97877.13;;;20.27;48.47
40285;BME280;25997;50.214;19.354;2022-07-23T02:11:56;97872.75;;;20.23;48.45
40285;BME280;25997;50.214;19.354;2022-07-23T02:14:59;97876.38;;;20.19;48.56
40285;BME280;25997;50.214;19.354;2022-07-23T02:18:02;97875.47;;;20.20;48.97
40285;BME280;25997;50.214;19.354;2022-07-23T02:21:06;97881.59;;;20.26;49.04
40285;BME280;25997;50.214;19.354;2022-07-23T02:24:10;97871.69;;;20.34;49.07
40285;BME280;25997;50.214;19.354;2022-07-23T02:27:15;97887.59;;;20.40;48.97
40285;BME280;25997;50.214;19.354;2022-07-23T02:30:19;97884.03;;;20.41;48.96
40285;BME280;25997;50.214;19.354;2022-07-23T02:33:21;97888.63;;;20.32;48.89
40285;BME280;25997;50.214;19.354;2022-07-23T02:36:25;97880.75;;;20.23;49.28
40285;BME280;25997;50.214;19.354;2022-07-23T02:39:29;97885.16;;;20.25;49.23
40285;BME280;25997;50.214;19.354;2022-07-23T02:42:32;97882.53;;;20.24;49.29
40285;BME280;25997;50.214;19.354;2022-07-23T02:45:35;97882.53;;;20.24;49.28
40285;BME280;25997;50.214;19.354;2022-07-23T02:48:37;97882.38;;;20.31;49.21
40285;BME280;25997;50.214;19.354;2022-07-23T02:51:40;97880.53;;;20.38;49.30
40285;BME280;25997;50.214;19.354;2022-07-23T02:54:44;97873.28;;;20.46;49.05
40285;BME280;25997;50.214;19.354;2022-07-23T02:57:51;97871.41;;;20.52;49.22
40285;BME280;25997;50.214;19.354;2022-07-23T03:00:53;97876.59;;;20.61;48.98
40285;BME280;25997;50.214;19.354;2022-07-23T03:03:56;97873.88;;;20.63;48.66
40285;BME280;25997;50.214;19.354;2022-07-23T03:06:59;97869.47;;;20.62;49.01
40285;BME280;25997;50.214;19.354;2022-07-23T03:10:03;97866.75;;;20.63;49.18
40285;BME280;25997;50.214;19.354;2022-07-23T03:13:06;97864.00;;;20.69;49.22
40285;BME280;25997;50.214;19.354;2022-07-23T03:16:08;97865.88;;;20.63;49.15
40285;BME280;25997;50.214;19.354;2022-07-23T03:19:11;97862.44;;;20.56;49.18
40285;BME280;25997;50.214;19.354;2022-07-23T03:22:15;97854.38;;;20.59;49.67
40285;BME280;25997;50.214;19.354;2022-07-23T03:25:20;97855.16;;;20.66;50.05
40285;BME280;25997;50.214;19.354;2022-07-23T03:28:22;97849.69;;;20.75;49.96
40285;BME280;25997;50.214;19.354;2022-07-23T03:31:25;97849.56;;;20.81;50.17
40285;BME280;25997;50.214;19.354;2022-07-23T03:34:27;97862.88;;;20.83;49.77
40285;BME280;25997;50.214;19.354;2022-07-23T03:37:30;97859.53;;;20.71;49.77
40285;BME280;25997;50.214;19.354;2022-07-23T03:40:35;97857.75;;;20.72;49.90
40285;BME280;25997;50.214;19.354;2022-07-23T03:43:38;97863.91;;;20.77;50.39
40285;BME280;25997;50.214;19.354;2022-07-23T03:46:40;97871.94;;;20.75;50.97
40285;BME280;25997;50.214;19.354;2022-07-23T03:49:44;97861.06;;;20.86;51.04
40285;BME280;25997;50.214;19.354;2022-07-23T03:52:47;97857.25;;;20.99;51.13
40285;BME280;25997;50.214;19.354;2022-07-23T03:55:51;97849.09;;;21.07;51.56
40285;BME280;25997;50.214;19.354;2022-07-23T03:58:54;97833.91;;;21.10;51.47
40285;BME280;25997;50.214;19.354;2022-07-23T04:01:57;97843.63;;;21.14;51.77
40285;BME280;25997;50.214;19.354;2022-07-23T04:05:00;97851.50;;;21.22;51.66
40285;BME280;25997;50.214;19.354;2022-07-23T04:08:02;97849.47;;;21.34;51.86
40285;BME280;25997;50.214;19.354;2022-07-23T04:11:07;97864.34;;;21.47;51.47
40285;BME280;25997;50.214;19.354;2022-07-23T04:14:10;97857.88;;;21.59;50.97
40285;BME280;25997;50.214;19.354;2022-07-23T04:17:13;97848.72;;;21.71;50.23
40285;BME280;25997;50.214;19.354;2022-07-23T04:20:17;97856.47;;;21.83;49.49
40285;BME280;25997;50.214;19.354;2022-07-23T04:23:27;97864.44;;;21.86;48.97
40285;BME280;25997;50.214;19.354;2022-07-23T04:26:31;97869.75;;;21.87;48.79
40285;BME280;25997;50.214;19.354;2022-07-23T04:29:33;97865.47;;;21.79;48.49
40285;BME280;25997;50.214;19.354;2022-07-23T04:32:36;97861.91;;;21.80;48.68
40285;BME280;25997;50.214;19.354;2022-07-23T04:35:47;97864.38;;;21.89;48.48
40285;BME280;25997;50.214;19.354;2022-07-23T04:38:54;97870.56;;;21.91;48.27
40285;BME280;25997;50.214;19.354;2022-07-23T04:41:58;97860.66;;;21.96;47.88
40285;BME280;25997;50.214;19.354;2022-07-23T04:45:03;97866.00;;;21.97;48.42
40285;BME280;25997;50.214;19.354;2022-07-23T04:48:05;97862.50;;;21.92;48.19
40285;BME280;25997;50.214;19.354;2022-07-23T04:51:08;97862.59;;;21.88;48.49
40285;BME280;25997;50.214;19.354;2022-07-23T04:54:11;97860.81;;;21.87;48.96
40285;BME280;25997;50.214;19.354;2022-07-23T04:57:15;97857.97;;;21.97;48.44
40285;BME280;25997;50.214;19.354;2022-07-23T05:00:17;97863.06;;;22.08;48.26
40285;BME280;25997;50.214;19.354;2022-07-23T05:03:20;97855.63;;;22.22;48.38
40285;BME280;25997;50.214;19.354;2022-07-23T05:06:23;97862.56;;;22.31;48.44
40285;BME280;25997;50.214;19.354;2022-07-23T05:09:26;97863.97;;;22.45;48.30
40285;BME280;25997;50.214;19.354;2022-07-23T05:12:30;97864.53;;;22.59;47.91
40285;BME280;25997;50.214;19.354;2022-07-23T05:15:33;97871.53;;;22.65;48.41
40285;BME280;25997;50.214;19.354;2022-07-23T05:18:37;97879.44;;;22.69;47.82
40285;BME280;25997;50.214;19.354;2022-07-23T05:21:40;97877.53;;;22.74;47.60
40285;BME280;25997;50.214;19.354;2022-07-23T05:24:43;97873.88;;;22.78;48.21
40285;BME280;25997;50.214;19.354;2022-07-23T05:27:48;97867.50;;;22.82;48.40
40285;BME280;25997;50.214;19.354;2022-07-23T05:30:50;97870.16;;;22.84;48.26
40285;BME280;25997;50.214;19.354;2022-07-23T05:33:53;97871.00;;;22.86;48.88
40285;BME280;25997;50.214;19.354;2022-07-23T05:36:58;97868.16;;;22.92;49.36
40285;BME280;25997;50.214;19.354;2022-07-23T05:40:02;97860.25;;;22.87;49.44
40285;BME280;25997;50.214;19.354;2022-07-23T05:43:06;97863.69;;;22.93;50.07
40285;BME280;25997;50.214;19.354;2022-07-23T05:46:09;97865.13;;;23.06;49.34
40285;BME280;25997;50.214;19.354;2022-07-23T05:49:15;97859.69;;;23.09;49.44
40285;BME280;25997;50.214;19.354;2022-07-23T05:52:55;97860.25;;;23.21;49.45
40285;BME280;25997;50.214;19.354;2022-07-23T05:56:26;97852.63;;;23.38;48.79
40285;BME280;25997;50.214;19.354;2022-07-23T05:59:31;97845.78;;;23.59;48.62
40285;BME280;25997;50.214;19.354;2022-07-23T06:02:34;97833.59;;;23.78;48.34
40285;BME280;25997;50.214;19.354;2022-07-23T06:05:37;97841.91;;;23.98;47.78
40285;BME280;25997;50.214;19.354;2022-07-23T06:08:40;97839.34;;;24.23;47.99
40285;BME280;25997;50.214;19.354;2022-07-23T06:11:44;97829.63;;;24.48;47.71
40285;BME280;25997;50.214;19.354;2022-07-23T06:14:48;97840.53;;;24.70;47.49
40285;BME280;25997;50.214;19.354;2022-07-23T06:17:52;97838.91;;;24.90;47.14
40285;BME280;25997;50.214;19.354;2022-07-23T06:20:55;97830.34;;;25.06;46.96
40285;BME280;25997;50.214;19.354;2022-07-23T06:23:58;97827.94;;;25.23;46.75
40285;BME280;25997;50.214;19.354;2022-07-23T06:27:00;97819.13;;;25.42;46.29
40285;BME280;25997;50.214;19.354;2022-07-23T06:30:06;97813.22;;;25.57;46.02
40285;BME280;25997;50.214;19.354;2022-07-23T06:33:09;97812.53;;;25.76;45.63
40285;BME280;25997;50.214;19.354;2022-07-23T06:36:12;97823.63;;;25.90;45.42
40285;BME280;25997;50.214;19.354;2022-07-23T06:39:15;97813.09;;;26.07;45.23
40285;BME280;25997;50.214;19.354;2022-07-23T06:42:22;97820.41;;;26.26;44.59
40285;BME280;25997;50.214;19.354;2022-07-23T06:45:33;97819.59;;;26.46;43.86
40285;BME280;25997;50.214;19.354;2022-07-23T06:48:35;97813.84;;;26.54;43.55
40285;BME280;25997;50.214;19.354;2022-07-23T06:51:38;97813.09;;;26.73;43.47
40285;BME280;25997;50.214;19.354;2022-07-23T06:54:41;97810.41;;;26.93;42.82
40285;BME280;25997;50.214;19.354;2022-07-23T06:57:43;97805.69;;;27.19;42.70
40285;BME280;25997;50.214;19.354;2022-07-23T07:00:47;97805.00;;;27.34;42.32
40285;BME280;25997;50.214;19.354;2022-07-23T07:03:49;97812.28;;;27.52;41.78
40285;BME280;25997;50.214;19.354;2022-07-23T07:06:52;97814.25;;;27.68;40.69
40285;BME280;25997;50.214;19.354;2022-07-23T07:09:55;97815.56;;;27.78;40.11
40285;BME280;25997;50.214;19.354;2022-07-23T07:12:57;97811.31;;;27.92;39.44
40285;BME280;25997;50.214;19.354;2022-07-23T07:16:01;97813.75;;;28.16;39.28
40285;BME280;25997;50.214;19.354;2022-07-23T07:19:04;97821.94;;;28.33;38.76
40285;BME280;25997;50.214;19.354;2022-07-23T07:22:06;97820.97;;;28.34;39.35
40285;BME280;25997;50.214;19.354;2022-07-23T07:25:09;97831.66;;;28.37;38.96
40285;BME280;25997;50.214;19.354;2022-07-23T07:28:12;97826.38;;;28.34;39.10
40285;BME280;25997;50.214;19.354;2022-07-23T07:31:16;97819.81;;;28.40;38.70
40285;BME280;25997;50.214;19.354;2022-07-23T07:34:18;97809.50;;;28.48;39.30
40285;BME280;25997;50.214;19.354;2022-07-23T07:37:21;97809.56;;;28.65;38.74
40285;BME280;25997;50.214;19.354;2022-07-23T07:40:24;97819.34;;;28.68;38.38
40285;BME280;25997;50.214;19.354;2022-07-23T07:43:26;97811.97;;;28.71;37.88
40285;BME280;25997;50.214;19.354;2022-07-23T07:46:30;97819.66;;;28.79;37.01
40285;BME280;25997;50.214;19.354;2022-07-23T07:49:33;97809.75;;;28.96;36.73
40285;BME280;25997;50.214;19.354;2022-07-23T07:52:36;97818.94;;;29.11;35.88
40285;BME280;25997;50.214;19.354;2022-07-23T07:55:38;97824.38;;;29.09;36.13
40285;BME280;25997;50.214;19.354;2022-07-23T07:58:41;97825.41;;;29.07;35.25
40285;BME280;25997;50.214;19.354;2022-07-23T08:01:45;97840.06;;;29.03;35.79
40285;BME280;25997;50.214;19.354;2022-07-23T08:04:47;97831.75;;;29.24;35.73
40285;BME280;25997;50.214;19.354;2022-07-23T08:07:51;97828.69;;;29.48;35.34
40285;BME280;25997;50.214;19.354;2022-07-23T08:10:53;97836.53;;;29.69;35.16
40285;BME280;25997;50.214;19.354;2022-07-23T08:13:56;97847.50;;;29.83;35.16
40285;BME280;25997;50.214;19.354;2022-07-23T08:17:00;97840.03;;;30.04;35.43
40285;BME280;25997;50.214;19.354;2022-07-23T08:20:05;97831.34;;;30.15;35.41
40285;BME280;25997;50.214;19.354;2022-07-23T08:23:09;97832.75;;;30.37;35.24
40285;BME280;25997;50.214;19.354;2022-07-23T08:26:12;97823.56;;;30.55;34.76
40285;BME280;25997;50.214;19.354;2022-07-23T08:29:15;97832.91;;;30.50;34.90
40285;BME280;25997;50.214;19.354;2022-07-23T08:32:19;97822.25;;;30.62;34.57
40285;BME280;25997;50.214;19.354;2022-07-23T08:35:25;97804.91;;;30.49;34.38
40285;BME280;25997;50.214;19.354;2022-07-23T08:38:28;97797.34;;;30.56;34.32
40285;BME280;25997;50.214;19.354;2022-07-23T08:41:30;97795.47;;;30.72;33.76
40285;BME280;25997;50.214;19.354;2022-07-23T08:44:35;97786.13;;;30.78;33.31
40285;BME280;25997;50.214;19.354;2022-07-23T08:47:39;97784.63;;;31.02;33.25
40285;BME280;25997;50.214;19.354;2022-07-23T08:50:43;97795.19;;;31.22;33.01
40285;BME280;25997;50.214;19.354;2022-07-23T08:53:46;97794.13;;;31.24;32.50
40285;BME280;25997;50.214;19.354;2022-07-23T08:56:50;97788.13;;;31.48;31.47
40285;BME280;25997;50.214;19.354;2022-07-23T08:59:52;97788.25;;;31.60;31.73
40285;BME280;25997;50.214;19.354;2022-07-23T09:02:57;97791.75;;;31.76;31.93
40285;BME280;25997;50.214;19.354;2022-07-23T09:06:00;97802.16;;;31.84;30.62
40285;BME280;25997;50.214;19.354;2022-07-23T09:09:18;97805.34;;;31.76;29.23
40285;BME280;25997;50.214;19.354;2022-07-23T09:12:25;97797.88;;;31.66;29.14
40285;BME280;25997;50.214;19.354;2022-07-23T09:15:28;97805.06;;;31.81;29.25
40285;BME280;25997;50.214;19.354;2022-07-23T09:18:37;97802.44;;;31.93;28.57
40285;BME280;25997;50.214;19.354;2022-07-23T09:21:40;97800.66;;;32.21;28.86
40285;BME280;25997;50.214;19.354;2022-07-23T09:25:05;97800.84;;;32.32;27.73
40285;BME280;25997;50.214;19.354;2022-07-23T09:28:08;97802.78;;;32.30;28.83
40285;BME280;25997;50.214;19.354;2022-07-23T09:31:10;97805.53;;;32.70;28.25
40285;BME280;25997;50.214;19.354;2022-07-23T09:34:17;97803.25;;;33.04;27.70
40285;BME280;25997;50.214;19.354;2022-07-23T09:37:19;97801.31;;;33.18;27.53
40285;BME280;25997;50.214;19.354;2022-07-23T09:40:22;97796.94;;;33.16;26.87
40285;BME280;25997;50.214;19.354;2022-07-23T09:43:26;97794.34;;;33.02;26.49
40285;BME280;25997;50.214;19.354;2022-07-23T09:46:29;97793.56;;;33.00;26.11
40285;BME280;25997;50.214;19.354;2022-07-23T09:49:33;97798.84;;;32.62;26.55
40285;BME280;25997;50.214;19.354;2022-07-23T09:52:43;97796.47;;;32.70;26.30
40285;BME280;25997;50.214;19.354;2022-07-23T09:55:47;97794.53;;;32.99;26.94
40285;BME280;25997;50.214;19.354;2022-07-23T09:58:50;97797.91;;;33.41;26.50
40285;BME280;25997;50.214;19.354;2022-07-23T10:02:04;97787.34;;;34.00;26.30
40285;BME280;25997;50.214;19.354;2022-07-23T10:05:16;97784.88;;;34.93;26.24
40285;BME280;25997;50.214;19.354;2022-07-23T10:08:47;97791.25;;;35.39;23.59
40285;BME280;25997;50.214;19.354;2022-07-23T10:12:10;97786.84;;;34.91;24.80
40285;BME280;25997;50.214;19.354;2022-07-23T10:15:30;97788.97;;;35.22;24.82
40285;BME280;25997;50.214;19.354;2022-07-23T10:18:33;97783.41;;;35.35;24.88
40285;BME280;25997;50.214;19.354;2022-07-23T10:21:41;97779.31;;;35.40;24.99
40285;BME280;25997;50.214;19.354;2022-07-23T10:24:58;97787.22;;;35.78;23.08
40285;BME280;25997;50.214;19.354;2022-07-23T10:28:10;97785.72;;;36.52;24.29
40285;BME280;25997;50.214;19.354;2022-07-23T10:31:25;97782.72;;;37.09;23.80
40285;BME280;25997;50.214;19.354;2022-07-23T10:34:36;97779.31;;;36.84;23.24
40285;BME280;25997;50.214;19.354;2022-07-23T10:37:45;97778.91;;;36.46;22.51
40285;BME280;25997;50.214;19.354;2022-07-23T10:40:55;97773.84;;;35.86;22.84
40285;BME280;25997;50.214;19.354;2022-07-23T10:44:09;97771.44;;;35.25;23.21
40285;BME280;25997;50.214;19.354;2022-07-23T10:47:21;97767.88;;;35.24;23.31
40285;BME280;25997;50.214;19.354;2022-07-23T10:50:41;97773.06;;;35.62;23.68
40285;BME280;25997;50.214;19.354;2022-07-23T10:53:56;97762.38;;;35.70;22.77
40285;BME280;25997;50.214;19.354;2022-07-23T10:57:06;97760.16;;;36.19;22.18
40285;BME280;25997;50.214;19.354;2022-07-23T11:03:35;97763.19;;;37.85;21.52
40285;BME280;25997;50.214;19.354;2022-07-23T11:07:08;97771.91;;;37.90;19.73
40285;BME280;25997;50.214;19.354;2022-07-23T11:10:32;97757.97;;;38.02;19.45
40285;BME280;25997;50.214;19.354;2022-07-23T11:13:45;97759.69;;;37.73;19.58
40285;BME280;25997;50.214;19.354;2022-07-23T11:16:48;97758.66;;;37.74;20.58
40285;BME280;25997;50.214;19.354;2022-07-23T11:20:17;97747.72;;;37.01;19.67
40285;BME280;25997;50.214;19.354;2022-07-23T11:23:20;97747.34;;;36.63;20.74
40285;BME280;25997;50.214;19.354;2022-07-23T11:26:42;97748.06;;;36.44;20.15
40285;BME280;25997;50.214;19.354;2022-07-23T11:29:46;97742.09;;;36.39;20.88
40285;BME280;25997;50.214;19.354;2022-07-23T11:32:50;97740.94;;;36.53;21.26
40285;BME280;25997;50.214;19.354;2022-07-23T11:36:03;97743.72;;;37.05;20.55
40285;BME280;25997;50.214;19.354;2022-07-23T11:39:06;97738.06;;;37.38;20.60
40285;BME280;25997;50.214;19.354;2022-07-23T11:42:17;97729.81;;;38.10;20.43
40285;BME280;25997;50.214;19.354;2022-07-23T11:45:21;97732.28;;;38.62;20.18
40285;BME280;25997;50.214;19.354;2022-07-23T11:48:25;97726.50;;;39.23;20.25
40285;BME280;25997;50.214;19.354;2022-07-23T11:51:28;97731.78;;;39.82;19.63
40285;BME280;25997;50.214;19.354;2022-07-23T11:54:33;97723.28;;;40.02;18.99
40285;BME280;25997;50.214;19.354;2022-07-23T11:57:39;97721.44;;;39.47;19.39
40285;BME280;25997;50.214;19.354;2022-07-23T12:00:42;97720.72;;;39.16;19.50
40285;BME280;25997;50.214;19.354;2022-07-23T12:03:49;97705.84;;;38.99;19.33
40285;BME280;25997;50.214;19.354;2022-07-23T12:06:52;97711.03;;;39.41;19.63
40285;BME280;25997;50.214;19.354;2022-07-23T12:09:56;97704.41;;;39.70;19.31
40285;BME280;25997;50.214;19.354;2022-07-23T12:13:02;97702.69;;;39.79;18.69
40285;BME280;25997;50.214;19.354;2022-07-23T12:16:06;97688.91;;;38.94;19.35
40285;BME280;25997;50.214;19.354;2022-07-23T12:19:09;97693.81;;;39.00;19.61
40285;BME280;25997;50.214;19.354;2022-07-23T12:22:12;97704.25;;;38.87;19.31
40285;BME280;25997;50.214;19.354;2022-07-23T12:25:17;97687.31;;;38.63;19.46
40285;BME280;25997;50.214;19.354;2022-07-23T12:28:27;97687.34;;;38.82;19.42
40285;BME280;25997;50.214;19.354;2022-07-23T12:31:30;97699.19;;;38.83;19.27
40285;BME280;25997;50.214;19.354;2022-07-23T12:34:33;97686.16;;;38.94;19.09
40285;BME280;25997;50.214;19.354;2022-07-23T12:37:37;97685.56;;;38.43;19.33
40285;BME280;25997;50.214;19.354;2022-07-23T12:40:43;97674.38;;;38.16;19.75
40285;BME280;25997;50.214;19.354;2022-07-23T12:43:48;97668.25;;;37.93;19.69
40285;BME280;25997;50.214;19.354;2022-07-23T12:46:52;97662.75;;;37.53;20.23
40285;BME280;25997;50.214;19.354;2022-07-23T12:49:54;97650.13;;;37.00;20.40
40285;BME280;25997;50.214;19.354;2022-07-23T12:53:05;97649.34;;;36.57;20.63
40285;BME280;25997;50.214;19.354;2022-07-23T12:56:09;97647.00;;;36.09;21.00
40285;BME280;25997;50.214;19.354;2022-07-23T12:59:14;97647.56;;;35.92;21.15
40285;BME280;25997;50.214;19.354;2022-07-23T13:02:17;97644.44;;;35.75;21.49
40285;BME280;25997;50.214;19.354;2022-07-23T13:05:20;97640.50;;;35.45;21.76
40285;BME280;25997;50.214;19.354;2022-07-23T13:08:23;97638.97;;;35.30;22.11
40285;BME280;25997;50.214;19.354;2022-07-23T13:11:26;97643.94;;;35.14;21.70
40285;BME280;25997;50.214;19.354;2022-07-23T13:14:30;97636.72;;;35.02;21.78
40285;BME280;25997;50.214;19.354;2022-07-23T13:17:33;97634.84;;;35.03;22.19
40285;BME280;25997;50.214;19.354;2022-07-23T13:20:36;97641.03;;;34.94;22.12
40285;BME280;25997;50.214;19.354;2022-07-23T13:23:39;97632.03;;;34.80;22.06
40285;BME280;25997;50.214;19.354;2022-07-23T13:26:42;97626.59;;;34.92;21.80
40285;BME280;25997;50.214;19.354;2022-07-23T13:29:46;97615.63;;;35.04;22.60
40285;BME280;25997;50.214;19.354;2022-07-23T13:32:49;97609.66;;;35.88;21.50
40285;BME280;25997;50.214;19.354;2022-07-23T13:35:52;97604.38;;;36.70;21.16
40285;BME280;25997;50.214;19.354;2022-07-23T13:38:55;97602.03;;;36.86;20.94
40285;BME280;25997;50.214;19.354;2022-07-23T13:41:58;97609.69;;;36.51;20.91
40285;BME280;25997;50.214;19.354;2022-07-23T13:45:02;97614.91;;;36.11;21.05
40285;BME280;25997;50.214;19.354;2022-07-23T13:48:06;97615.00;;;35.67;21.86
40285;BME280;25997;50.214;19.354;2022-07-23T13:51:09;97622.06;;;35.14;23.34
40285;BME280;25997;50.214;19.354;2022-07-23T13:54:12;97620.63;;;34.41;23.95
40285;BME280;25997;50.214;19.354;2022-07-23T13:57:14;97620.88;;;33.41;24.51
40285;BME280;25997;50.214;19.354;2022-07-23T14:00:19;97608.22;;;32.77;25.04
40285;BME280;25997;50.214;19.354;2022-07-23T14:03:22;97602.91;;;32.37;24.75
40285;BME280;25997;50.214;19.354;2022-07-23T14:06:25;97596.25;;;32.16;25.34
40285;BME280;25997;50.214;19.354;2022-07-23T14:09:27;97598.25;;;31.99;26.56
40285;BME280;25997;50.214;19.354;2022-07-23T14:12:31;97596.53;;;31.58;26.86
40285;BME280;25997;50.214;19.354;2022-07-23T14:15:35;97597.72;;;31.11;27.73
40285;BME280;25997;50.214;19.354;2022-07-23T14:18:41;97602.81;;;30.74;27.88
40285;BME280;25997;50.214;19.354;2022-07-23T14:21:44;97599.25;;;30.43;29.56
40285;BME280;25997;50.214;19.354;2022-07-23T14:24:46;97617.66;;;30.09;29.87
40285;BME280;25997;50.214;19.354;2022-07-23T14:27:49;97632.94;;;29.63;30.85
40285;BME280;25997;50.214;19.354;2022-07-23T14:30:53;97653.47;;;28.86;32.42
40285;BME280;25997;50.214;19.354;2022-07-23T14:33:55;97661.25;;;28.23;34.62
40285;BME280;25997;50.214;19.354;2022-07-23T14:36:58;97663.06;;;27.50;36.70
40285;BME280;25997;50.214;19.354;2022-07-23T14:40:02;97666.63;;;26.12;40.68
40285;BME280;25997;50.214;19.354;2022-07-23T14:43:04;97690.75;;;25.01;44.67
40285;BME280;25997;50.214;19.354;2022-07-23T14:46:08;97694.63;;;24.17;48.43
40285;BME280;25997;50.214;19.354;2022-07-23T14:49:11;97709.38;;;23.78;48.87
40285;BME280;25997;50.214;19.354;2022-07-23T14:52:14;97706.22;;;23.63;50.19
40285;BME280;25997;50.214;19.354;2022-07-23T14:55:17;97706.00;;;23.42;51.01
40285;BME280;25997;50.214;19.354;2022-07-23T14:58:19;97704.72;;;23.53;51.56
40285;BME280;25997;50.214;19.354;2022-07-23T15:01:23;97694.34;;;24.00;49.51
40285;BME280;25997;50.214;19.354;2022-07-23T15:04:26;97708.81;;;24.73;46.80
40285;BME280;25997;50.214;19.354;2022-07-23T15:07:29;97694.19;;;25.52;46.67
40285;BME280;25997;50.214;19.354;2022-07-23T15:10:32;97693.66;;;26.31;45.70
40285;BME280;25997;50.214;19.354;2022-07-23T15:13:34;97678.75;;;27.03;43.98
40285;BME280;25997;50.214;19.354;2022-07-23T15:16:39;97658.19;;;27.58;43.71
40285;BME280;25997;50.214;19.354;2022-07-23T15:19:41;97659.31;;;28.08;42.42
40285;BME280;25997;50.214;19.354;2022-07-23T15:22:44;97649.75;;;28.37;41.37
40285;BME280;25997;50.214;19.354;2022-07-23T15:25:48;97649.91;;;28.51;39.31
40285;BME280;25997;50.214;19.354;2022-07-23T15:28:51;97651.94;;;28.80;38.51
40285;BME280;25997;50.214;19.354;2022-07-23T15:31:55;97642.19;;;28.78;38.94
40285;BME280;25997;50.214;19.354;2022-07-23T15:34:58;97649.38;;;29.11;38.72
40285;BME280;25997;50.214;19.354;2022-07-23T15:38:01;97664.53;;;29.47;38.00
40285;BME280;25997;50.214;19.354;2022-07-23T15:41:04;97684.81;;;29.55;37.36
40285;BME280;25997;50.214;19.354;2022-07-23T15:44:06;97687.28;;;29.27;36.87
40285;BME280;25997;50.214;19.354;2022-07-23T15:47:12;97700.25;;;29.20;37.42
40285;BME280;25997;50.214;19.354;2022-07-23T15:50:15;97695.84;;;29.19;36.96
40285;BME280;25997;50.214;19.354;2022-07-23T15:53:19;97692.59;;;29.13;37.03
40285;BME280;25997;50.214;19.354;2022-07-23T15:56:22;97693.81;;;29.23;36.80
40285;BME280;25997;50.214;19.354;2022-07-23T15:59:24;97683.50;;;29.14;37.00
40285;BME280;25997;50.214;19.354;2022-07-23T16:02:28;97674.59;;;28.95;37.16
40285;BME280;25997;50.214;19.354;2022-07-23T16:05:31;97670.88;;;28.80;36.96
40285;BME280;25997;50.214;19.354;2022-07-23T16:08:34;97666.88;;;29.04;37.09